Time;durP1;ratioP1;P1;durP2;ratioP2;P2;SDS_P1;SDS_P2;PMS_P1;PMS_P2;Temp;Humidity;BMP_temperature;BMP_pressure;BME280_temperature;BME280_humidity;BME280_pressure;Samples;Min_cycle;Max_cycle;Signal;HPM_P1;HPM_P2
2022/04/06 00:00:29;;;;;;;8.20;4.13;;;;;;;;;;5112587;28;20450;-77
2022/04/06 00:02:57;;;;;;;11.50;4.90;;;;;;;;;;5116084;28;20452;-79
2022/04/06 00:05:25;;;;;;;13.20;4.63;;;;;;;;;;5118675;28;20793;-78
2022/04/06 00:07:52;;;;;;;8.30;4.20;;;;;;;;;;5094836;28;20798;-76
2022/04/06 00:10:19;;;;;;;7.10;3.90;;;;;;;;;;5112298;28;20445;-79
2022/04/06 00:12:46;;;;;;;8.23;3.80;;;;;;;;;;5115120;28;20788;-79
2022/04/06 00:15:13;;;;;;;7.00;3.90;;;;;;;;;;5114693;28;20438;-77
2022/04/06 00:17:41;;;;;;;9.43;3.60;;;;;;;;;;5114944;28;20841;-77
2022/04/06 00:20:10;;;;;;;9.30;4.33;;;;;;;;;;5115906;28;20494;-77
2022/04/06 00:22:38;;;;;;;7.00;3.80;;;;;;;;;;5098557;28;20438;-78
2022/04/06 00:25:05;;;;;;;6.73;3.73;;;;;;;;;;5119820;27;20454;-77
2022/04/06 00:27:32;;;;;;;11.40;3.20;;;;;;;;;;5122296;27;20434;-77
2022/04/06 00:29:59;;;;;;;10.27;3.93;;;;;;;;;;5117191;27;20434;-78
2022/04/06 00:32:27;;;;;;;7.60;3.67;;;;;;;;;;5114317;28;20438;-77
2022/04/06 00:37:36;;;;;;;7.10;3.53;;;;;;;;;;5113437;28;20950;-77
2022/04/06 00:40:04;;;;;;;4.57;2.77;;;;;;;;;;5095778;28;20505;-76
2022/04/06 00:42:31;;;;;;;8.57;3.60;;;;;;;;;;5098363;28;20449;-78
2022/04/06 00:44:58;;;;;;;5.60;3.70;;;;;;;;;;5116104;28;20434;-79
2022/04/06 00:47:25;;;;;;;5.33;3.00;;;;;;;;;;5119342;27;20434;-77
2022/04/06 00:49:53;;;;;;;7.23;3.53;;;;;;;;;;5121553;27;20984;-79
2022/04/06 00:52:21;;;;;;;5.53;3.60;;;;;;;;;;5129698;27;20941;-79
2022/04/06 00:54:50;;;;;;;6.77;3.43;;;;;;;;;;5134384;27;20465;-78
2022/04/06 00:57:19;;;;;;;7.13;3.30;;;;;;;;;;5134487;27;20441;-76
2022/04/06 00:59:48;;;;;;;7.53;3.33;;;;;;;;;;5134482;27;20477;-77
2022/04/06 01:02:15;;;;;;;6.30;3.77;;;;;;;;;;5134411;27;20437;-79
2022/04/06 01:04:42;;;;;;;6.13;3.37;;;;;;;;;;5115200;28;20465;-77
2022/04/06 01:07:10;;;;;;;9.33;3.47;;;;;;;;;;5115681;28;20443;-76
2022/04/06 01:09:37;;;;;;;6.73;2.60;;;;;;;;;;5118900;27;20451;-77
2022/04/06 01:12:06;;;;;;;5.10;2.70;;;;;;;;;;5121565;27;20445;-77
2022/04/06 01:14:33;;;;;;;5.23;3.07;;;;;;;;;;5116169;27;20833;-78
2022/04/06 01:17:01;;;;;;;7.77;3.47;;;;;;;;;;5113438;28;20876;-80
2022/04/06 01:19:31;;;;;;;6.23;3.57;;;;;;;;;;5095146;28;20847;-77
2022/04/06 01:21:59;;;;;;;5.93;3.17;;;;;;;;;;5094944;28;20527;-76
2022/04/06 01:24:27;;;;;;;6.67;2.90;;;;;;;;;;5113836;28;20446;-76
2022/04/06 01:26:55;;;;;;;6.50;3.60;;;;;;;;;;5114670;28;20470;-76
2022/04/06 01:29:22;;;;;;;6.23;2.73;;;;;;;;;;5115378;28;20966;-78
2022/04/06 01:31:49;;;;;;;6.90;2.90;;;;;;;;;;5118247;27;20438;-75
2022/04/06 01:34:16;;;;;;;3.80;2.73;;;;;;;;;;5121023;27;20439;-76
2022/04/06 01:36:43;;;;;;;7.00;2.87;;;;;;;;;;5128380;27;20876;-77
2022/04/06 01:39:11;;;;;;;6.07;2.80;;;;;;;;;;5133585;27;20513;-79
2022/04/06 01:41:39;;;;;;;4.47;2.87;;;;;;;;;;5133498;27;20448;-77
2022/04/06 01:44:07;;;;;;;6.70;2.80;;;;;;;;;;5133591;27;20794;-78
2022/04/06 01:46:36;;;;;;;6.20;3.10;;;;;;;;;;5133829;27;20433;-77
2022/04/06 01:54:26;;;;;;;9.93;3.10;;;;;;;;;;5117598;27;20433;-76
2022/04/06 01:56:54;;;;;;;6.10;3.10;;;;;;;;;;5120696;27;20767;-76
2022/04/06 01:59:21;;;;;;;11.07;4.97;;;;;;;;;;5114632;27;20559;-77
2022/04/06 02:01:51;;;;;;;5.53;3.70;;;;;;;;;;5112713;28;20451;-76
2022/04/06 02:04:18;;;;;;;3.37;2.87;;;;;;;;;;5112956;28;20672;-78
2022/04/06 02:06:45;;;;;;;10.93;3.43;;;;;;;;;;5113370;28;20934;-76
2022/04/06 02:09:13;;;;;;;8.67;3.20;;;;;;;;;;5112770;28;20887;-78
2022/04/06 02:11:41;;;;;;;6.43;3.53;;;;;;;;;;5093881;28;20971;-75
2022/04/06 02:14:10;;;;;;;6.73;3.00;;;;;;;;;;5076368;28;20443;-75
2022/04/06 02:16:37;;;;;;;3.77;2.50;;;;;;;;;;5110040;27;20449;-75
2022/04/06 02:19:04;;;;;;;11.13;3.13;;;;;;;;;;5119959;27;20993;-77
2022/04/06 02:21:32;;;;;;;7.90;3.13;;;;;;;;;;5114526;27;20446;-75
2022/04/06 02:23:59;;;;;;;7.57;3.40;;;;;;;;;;5112100;28;20438;-76
2022/04/06 02:26:27;;;;;;;6.50;3.00;;;;;;;;;;5112060;28;20446;-76
2022/04/06 02:28:54;;;;;;;5.97;3.03;;;;;;;;;;5112442;28;20458;-75
2022/04/06 02:31:22;;;;;;;3.93;2.90;;;;;;;;;;5112356;28;20446;-77
2022/04/06 02:33:50;;;;;;;10.30;3.13;;;;;;;;;;5113334;28;20454;-76
2022/04/06 02:36:17;;;;;;;4.50;3.00;;;;;;;;;;5114141;28;20496;-76
2022/04/06 02:38:44;;;;;;;8.10;3.63;;;;;;;;;;5116787;27;20583;-76
2022/04/06 02:41:12;;;;;;;4.50;2.97;;;;;;;;;;5119884;27;20445;-75
2022/04/06 02:43:39;;;;;;;5.67;3.23;;;;;;;;;;5127029;27;20445;-76
2022/04/06 02:46:06;;;;;;;5.93;3.10;;;;;;;;;;5132233;27;20437;-75
2022/04/06 02:48:35;;;;;;;8.63;3.53;;;;;;;;;;5113766;27;20473;-75
2022/04/06 02:51:02;;;;;;;3.03;2.47;;;;;;;;;;5132294;27;20947;-76
2022/04/06 02:53:29;;;;;;;5.77;3.20;;;;;;;;;;5132392;27;20452;-76
2022/04/06 02:55:56;;;;;;;7.37;3.60;;;;;;;;;;5114370;27;20458;-75
2022/04/06 02:58:23;;;;;;;7.13;3.23;;;;;;;;;;5113721;28;20459;-76
2022/04/06 03:00:50;;;;;;;9.87;3.10;;;;;;;;;;5116190;27;20482;-76
2022/04/06 03:03:18;;;;;;;5.53;2.90;;;;;;;;;;5119645;27;20446;-76
2022/04/06 03:05:46;;;;;;;4.97;3.10;;;;;;;;;;5125471;27;20806;-76
2022/04/06 03:08:13;;;;;;;4.23;2.63;;;;;;;;;;5132061;27;20465;-76
2022/04/06 03:10:40;;;;;;;6.40;3.03;;;;;;;;;;5132183;27;20433;-75
2022/04/06 03:13:08;;;;;;;5.87;3.23;;;;;;;;;;5132463;27;20803;-75
2022/04/06 03:15:35;;;;;;;7.60;3.10;;;;;;;;;;5132131;27;20926;-75
2022/04/06 03:18:02;;;;;;;7.60;3.57;;;;;;;;;;5115783;27;20513;-76
2022/04/06 03:20:29;;;;;;;6.77;3.37;;;;;;;;;;5113044;28;20478;-75
2022/04/06 03:22:58;;;;;;;8.00;3.57;;;;;;;;;;5115350;27;20442;-77
2022/04/06 03:25:25;;;;;;;4.30;3.70;;;;;;;;;;5119257;27;20438;-76
2022/04/06 03:27:52;;;;;;;6.80;3.20;;;;;;;;;;5124261;27;20457;-76
2022/04/06 03:30:20;;;;;;;6.83;3.47;;;;;;;;;;5132209;27;20441;-75
2022/04/06 03:32:47;;;;;;;7.57;3.60;;;;;;;;;;5133468;27;20440;-77
2022/04/06 03:35:14;;;;;;;4.07;3.00;;;;;;;;;;5132287;27;20825;-75
2022/04/06 03:37:41;;;;;;;4.90;3.20;;;;;;;;;;5132406;27;20464;-75
2022/04/06 03:40:11;;;;;;;8.60;3.50;;;;;;;;;;5117342;27;20813;-75
2022/04/06 03:42:38;;;;;;;7.80;3.50;;;;;;;;;;5113088;28;20801;-75
2022/04/06 03:45:05;;;;;;;5.40;2.50;;;;;;;;;;5113883;28;20949;-75
2022/04/06 03:47:33;;;;;;;6.40;2.90;;;;;;;;;;5118632;28;20434;-75
2022/04/06 03:50:00;;;;;;;3.70;2.60;;;;;;;;;;5104456;28;20471;-76
2022/04/06 03:52:28;;;;;;;5.40;2.57;;;;;;;;;;5131292;28;20449;-75
2022/04/06 03:54:55;;;;;;;6.87;3.13;;;;;;;;;;5131186;28;20437;-75
2022/04/06 03:57:24;;;;;;;5.50;3.20;;;;;;;;;;5113167;28;20441;-75
2022/04/06 03:59:51;;;;;;;4.97;2.70;;;;;;;;;;5131599;28;20473;-74
2022/04/06 04:02:19;;;;;;;2.73;2.40;;;;;;;;;;5118526;28;20450;-76
2022/04/06 04:04:46;;;;;;;4.17;2.97;;;;;;;;;;5112913;28;20449;-75
2022/04/06 04:07:13;;;;;;;5.10;3.10;;;;;;;;;;5113940;28;20930;-75
2022/04/06 04:09:40;;;;;;;5.00;3.33;;;;;;;;;;5118390;28;20453;-76
2022/04/06 04:12:08;;;;;;;6.63;3.30;;;;;;;;;;5116312;28;20513;-76
2022/04/06 04:14:36;;;;;;;7.00;2.97;;;;;;;;;;5110503;28;20445;-76
2022/04/06 04:17:04;;;;;;;5.00;2.80;;;;;;;;;;5110505;28;20442;-76
2022/04/06 04:19:31;;;;;;;3.50;2.63;;;;;;;;;;5110655;28;20478;-77
2022/04/06 04:21:58;;;;;;;8.03;3.00;;;;;;;;;;5110998;28;20452;-75
2022/04/06 04:24:25;;;;;;;4.87;2.90;;;;;;;;;;5111233;28;20465;-75
2022/04/06 04:26:52;;;;;;;5.87;3.20;;;;;;;;;;5112478;28;20442;-74
2022/04/06 04:29:19;;;;;;;6.43;2.87;;;;;;;;;;5112867;28;20462;-75
2022/04/06 04:31:48;;;;;;;7.53;3.23;;;;;;;;;;5117813;28;20938;-75
2022/04/06 04:34:15;;;;;;;10.63;3.17;;;;;;;;;;5117174;28;20760;-77
2022/04/06 04:36:43;;;;;;;4.70;2.80;;;;;;;;;;5109710;28;20542;-76
2022/04/06 04:39:10;;;;;;;4.00;2.63;;;;;;;;;;5110469;28;20458;-76
2022/04/06 04:41:37;;;;;;;3.53;2.27;;;;;;;;;;5110673;28;20794;-76
2022/04/06 04:44:05;;;;;;;4.67;2.60;;;;;;;;;;5110923;28;20915;-76
2022/04/06 04:46:32;;;;;;;7.10;3.30;;;;;;;;;;5110901;28;20532;-75
2022/04/06 04:49:00;;;;;;;4.90;3.30;;;;;;;;;;5113808;28;20477;-76
2022/04/06 04:51:28;;;;;;;8.10;2.93;;;;;;;;;;5117790;28;20591;-76
2022/04/06 04:53:57;;;;;;;5.10;3.07;;;;;;;;;;5114505;28;20446;-75
2022/04/06 04:56:24;;;;;;;6.70;3.20;;;;;;;;;;5110090;28;20810;-76
2022/04/06 04:58:52;;;;;;;7.63;3.00;;;;;;;;;;5113957;28;20810;-76
2022/04/06 05:01:19;;;;;;;4.70;2.70;;;;;;;;;;5113927;28;20474;-76
2022/04/06 05:03:47;;;;;;;5.40;3.50;;;;;;;;;;5114202;28;20438;-76
2022/04/06 05:06:15;;;;;;;4.93;2.90;;;;;;;;;;5114671;28;20458;-76
2022/04/06 05:08:42;;;;;;;4.83;2.93;;;;;;;;;;5115563;28;20454;-75
2022/04/06 05:11:10;;;;;;;4.93;2.87;;;;;;;;;;5117901;27;20433;-75
2022/04/06 05:13:37;;;;;;;5.13;3.00;;;;;;;;;;5121720;27;20441;-75
2022/04/06 05:16:05;;;;;;;6.30;3.00;;;;;;;;;;5117640;27;20453;-76
2022/04/06 05:18:32;;;;;;;5.53;3.10;;;;;;;;;;5113690;28;20805;-75
2022/04/06 05:21:00;;;;;;;10.60;3.10;;;;;;;;;;5113238;28;20482;-76
2022/04/06 05:23:28;;;;;;;3.20;2.90;;;;;;;;;;5113325;28;20446;-77
2022/04/06 05:25:56;;;;;;;5.77;3.43;;;;;;;;;;5114137;28;20451;-77
2022/04/06 05:28:23;;;;;;;4.50;3.30;;;;;;;;;;5114239;28;20474;-77
2022/04/06 05:30:50;;;;;;;6.23;3.07;;;;;;;;;;5115264;28;20437;-77
2022/04/06 05:33:17;;;;;;;6.43;2.87;;;;;;;;;;5117223;27;20793;-76
2022/04/06 05:35:44;;;;;;;7.10;3.20;;;;;;;;;;5120811;27;20908;-76
2022/04/06 05:38:11;;;;;;;3.60;2.83;;;;;;;;;;5117201;27;20458;-76
2022/04/06 05:40:40;;;;;;;6.27;4.20;;;;;;;;;;5113066;28;20474;-78
2022/04/06 05:43:07;;;;;;;5.60;2.80;;;;;;;;;;5108743;28;20827;-77
2022/04/06 05:45:35;;;;;;;11.90;5.17;;;;;;;;;;5109950;28;20449;-75
2022/04/06 05:48:02;;;;;;;5.80;2.97;;;;;;;;;;5112924;28;20458;-76
2022/04/06 05:50:30;;;;;;;6.03;3.43;;;;;;;;;;5099753;27;20543;-75
2022/04/06 05:52:57;;;;;;;6.73;3.40;;;;;;;;;;5114558;27;20433;-76
2022/04/06 05:55:24;;;;;;;6.50;3.10;;;;;;;;;;5114868;27;20440;-75
2022/04/06 05:57:52;;;;;;;9.13;3.00;;;;;;;;;;5092330;28;20463;-75
2022/04/06 06:00:20;;;;;;;11.07;2.90;;;;;;;;;;5092260;28;20507;-76
2022/04/06 06:02:47;;;;;;;5.20;2.70;;;;;;;;;;5111904;28;20744;-74
2022/04/06 06:05:14;;;;;;;5.30;2.13;;;;;;;;;;5112940;28;20438;-75
2022/04/06 06:07:42;;;;;;;3.43;2.10;;;;;;;;;;5107757;28;20471;-76
2022/04/06 06:10:10;;;;;;;4.10;2.27;;;;;;;;;;5094114;28;20435;-75
2022/04/06 06:12:37;;;;;;;5.30;2.20;;;;;;;;;;5101943;27;20490;-77
2022/04/06 06:15:07;;;;;;;6.27;2.90;;;;;;;;;;5120272;27;20437;-77
2022/04/06 06:17:37;;;;;;;7.60;2.60;;;;;;;;;;5108421;27;20452;-76
2022/04/06 06:20:05;;;;;;;3.50;2.10;;;;;;;;;;5091545;28;20991;-77
2022/04/06 06:22:32;;;;;;;7.97;2.50;;;;;;;;;;5073130;28;20451;-77
2022/04/06 06:24:59;;;;;;;6.70;1.93;;;;;;;;;;5092014;28;20442;-76
2022/04/06 06:27:26;;;;;;;6.33;2.50;;;;;;;;;;5109883;28;20450;-77
2022/04/06 06:29:53;;;;;;;4.40;2.37;;;;;;;;;;5103589;28;20979;-77
2022/04/06 06:32:22;;;;;;;8.40;2.17;;;;;;;;;;5092766;28;20447;-77
2022/04/06 06:34:49;;;;;;;3.10;2.10;;;;;;;;;;5098345;27;20465;-76
2022/04/06 06:37:16;;;;;;;5.17;3.00;;;;;;;;;;5117791;27;20442;-76
2022/04/06 06:39:43;;;;;;;5.60;2.90;;;;;;;;;;5111246;27;20462;-77
2022/04/06 06:42:11;;;;;;;3.70;2.60;;;;;;;;;;5091559;28;20721;-77
2022/04/06 06:44:38;;;;;;;6.77;2.90;;;;;;;;;;5094758;28;20443;-77
2022/04/06 06:47:05;;;;;;;4.27;2.70;;;;;;;;;;5113695;28;20446;-77
2022/04/06 06:49:34;;;;;;;5.03;2.70;;;;;;;;;;5108752;28;21375;-75
2022/04/06 06:52:01;;;;;;;5.17;2.63;;;;;;;;;;5092546;28;20447;-77
2022/04/06 06:54:28;;;;;;;3.23;2.20;;;;;;;;;;5093187;28;20443;-82
2022/04/06 06:56:55;;;;;;;4.70;2.73;;;;;;;;;;5093142;28;20438;-78
2022/04/06 06:59:22;;;;;;;4.57;2.00;;;;;;;;;;5118229;27;20461;-75
2022/04/06 07:01:49;;;;;;;4.87;2.53;;;;;;;;;;5118819;27;20833;-76
2022/04/06 07:04:17;;;;;;;5.40;2.50;;;;;;;;;;5110601;28;20446;-76
2022/04/06 07:06:45;;;;;;;4.40;2.33;;;;;;;;;;5090834;28;20462;-74
2022/04/06 07:09:12;;;;;;;4.33;2.00;;;;;;;;;;5090594;28;20840;-76
2022/04/06 07:11:40;;;;;;;2.23;1.73;;;;;;;;;;5101261;28;20456;-77
2022/04/06 07:14:07;;;;;;;4.43;2.10;;;;;;;;;;5111199;28;20462;-78
2022/04/06 07:16:34;;;;;;;2.50;1.80;;;;;;;;;;5113039;27;20465;-77
2022/04/06 07:19:01;;;;;;;2.27;1.50;;;;;;;;;;5116964;27;20561;-76
2022/04/06 07:21:28;;;;;;;2.87;1.33;;;;;;;;;;5112622;27;20839;-82
2022/04/06 07:23:58;;;;;;;3.57;1.80;;;;;;;;;;5109567;28;21022;-77
2022/04/06 07:26:25;;;;;;;2.00;1.30;;;;;;;;;;5110889;28;20533;-77
2022/04/06 07:28:52;;;;;;;2.80;2.13;;;;;;;;;;5111709;28;20827;-77
2022/04/06 07:31:19;;;;;;;4.77;2.57;;;;;;;;;;5108469;28;20446;-78
2022/04/06 07:33:46;;;;;;;4.57;1.87;;;;;;;;;;5092738;28;20446;-78
2022/04/06 07:36:14;;;;;;;3.10;1.77;;;;;;;;;;5092548;28;20534;-76
2022/04/06 07:38:41;;;;;;;3.50;1.50;;;;;;;;;;5105318;27;20451;-77
2022/04/06 07:41:09;;;;;;;4.00;1.53;;;;;;;;;;5118495;27;20473;-77
2022/04/06 07:43:37;;;;;;;4.70;1.50;;;;;;;;;;5125928;27;20928;-77
2022/04/06 07:46:05;;;;;;;4.77;1.47;;;;;;;;;;5131405;28;20999;-77
2022/04/06 07:48:32;;;;;;;5.03;2.47;;;;;;;;;;5131030;28;20473;-77
2022/04/06 07:50:59;;;;;;;3.70;2.20;;;;;;;;;;5131441;28;21114;-77
2022/04/06 07:53:28;;;;;;;5.17;2.20;;;;;;;;;;5131318;28;20448;-78
2022/04/06 07:55:55;;;;;;;3.20;1.93;;;;;;;;;;5112880;28;20853;-77
2022/04/06 07:58:24;;;;;;;3.07;1.20;;;;;;;;;;5112862;28;20461;-77
2022/04/06 08:00:51;;;;;;;2.93;1.70;;;;;;;;;;5115276;28;20461;-77
2022/04/06 08:03:19;;;;;;;9.93;2.60;;;;;;;;;;5118436;28;20441;-77
2022/04/06 08:05:46;;;;;;;3.13;1.90;;;;;;;;;;5113904;28;20442;-77
2022/04/06 08:08:13;;;;;;;3.27;2.03;;;;;;;;;;5110791;28;20458;-78
2022/04/06 08:10:40;;;;;;;3.67;1.80;;;;;;;;;;5110672;28;20944;-77
2022/04/06 08:13:08;;;;;;;1.93;1.63;;;;;;;;;;5110686;28;20450;-77
2022/04/06 08:15:36;;;;;;;3.50;1.77;;;;;;;;;;5111254;28;20473;-79
2022/04/06 08:18:03;;;;;;;5.20;2.07;;;;;;;;;;5112201;28;20470;-77
2022/04/06 08:20:30;;;;;;;1.87;1.57;;;;;;;;;;5118186;28;20525;-78
2022/04/06 08:22:58;;;;;;;1.80;1.60;;;;;;;;;;5117300;28;20437;-77
2022/04/06 08:25:25;;;;;;;1.87;1.30;;;;;;;;;;5109920;28;20446;-78
2022/04/06 08:27:52;;;;;;;2.93;2.30;;;;;;;;;;5092164;28;20469;-79
2022/04/06 08:30:20;;;;;;;3.70;2.50;;;;;;;;;;5110625;28;20438;-78
2022/04/06 08:32:48;;;;;;;3.80;2.20;;;;;;;;;;5114644;28;20781;-77
2022/04/06 08:35:17;;;;;;;2.03;1.83;;;;;;;;;;5114927;28;20494;-78
2022/04/06 08:37:44;;;;;;;3.20;1.90;;;;;;;;;;5098779;28;20874;-77
2022/04/06 08:40:12;;;;;;;5.80;1.87;;;;;;;;;;5116666;27;20438;-78
2022/04/06 08:42:39;;;;;;;2.27;2.07;;;;;;;;;;5103926;27;20474;-78
2022/04/06 08:45:08;;;;;;;4.50;1.80;;;;;;;;;;5123776;27;20429;-79
2022/04/06 08:47:36;;;;;;;3.30;1.73;;;;;;;;;;5133862;27;20540;-78
2022/04/06 08:50:06;;;;;;;5.13;2.20;;;;;;;;;;5134096;27;20476;-78
2022/04/06 08:52:33;;;;;;;3.00;1.93;;;;;;;;;;5134717;27;20444;-77
2022/04/06 08:55:01;;;;;;;5.87;2.23;;;;;;;;;;5135044;27;20441;-77
2022/04/06 08:57:28;;;;;;;2.50;1.60;;;;;;;;;;5124108;27;20481;-77
2022/04/06 08:59:55;;;;;;;3.90;1.90;;;;;;;;;;5115774;28;20800;-77
2022/04/06 09:02:23;;;;;;;4.43;1.83;;;;;;;;;;5115595;28;20823;-77
2022/04/06 09:04:51;;;;;;;3.70;1.63;;;;;;;;;;5121623;27;20502;-77
2022/04/06 09:07:20;;;;;;;5.03;2.07;;;;;;;;;;5121067;27;20461;-77
2022/04/06 09:09:49;;;;;;;3.27;1.90;;;;;;;;;;5113160;28;20979;-77
2022/04/06 09:12:18;;;;;;;5.93;1.83;;;;;;;;;;5113259;28;20964;-77
2022/04/06 09:14:46;;;;;;;4.03;2.10;;;;;;;;;;5113637;28;20438;-77
2022/04/06 09:17:13;;;;;;;2.10;1.70;;;;;;;;;;5114051;28;20442;-77
2022/04/06 09:19:46;;;;;;;2.97;1.80;;;;;;;;;;5113980;28;20839;-77
2022/04/06 09:22:13;;;;;;;2.13;1.53;;;;;;;;;;5115528;28;20478;-76
2022/04/06 09:24:42;;;;;;;7.17;1.90;;;;;;;;;;5115445;28;20443;-76
2022/04/06 09:27:09;;;;;;;6.00;2.03;;;;;;;;;;5120921;27;20434;-77
2022/04/06 09:29:36;;;;;;;2.63;1.40;;;;;;;;;;5122889;27;20790;-77
2022/04/06 09:32:07;;;;;;;1.90;1.50;;;;;;;;;;5133507;27;20444;-77
2022/04/06 09:34:34;;;;;;;2.80;1.43;;;;;;;;;;5115376;27;20443;-77
2022/04/06 09:37:21;;;;;;;3.93;1.77;;;;;;;;;;5133905;27;20785;-77
2022/04/06 09:39:50;;;;;;;5.57;2.00;;;;;;;;;;5118943;27;20465;-77
2022/04/06 09:42:21;;;;;;;2.33;1.40;;;;;;;;;;5120348;27;20486;-76
2022/04/06 09:50:11;;;;;;;2.70;1.50;;;;;;;;;;5104049;27;20454;-77
2022/04/06 09:52:39;;;;;;;3.13;2.00;;;;;;;;;;5125327;27;20468;-77
2022/04/06 09:55:09;;;;;;;4.93;1.87;;;;;;;;;;5133337;27;20775;-78
2022/04/06 09:57:41;;;;;;;4.80;1.80;;;;;;;;;;5114898;27;20472;-79
2022/04/06 10:00:09;;;;;;;2.50;1.90;;;;;;;;;;5133159;27;20440;-80
2022/04/06 10:02:37;;;;;;;5.10;1.83;;;;;;;;;;5133410;27;20512;-78
2022/04/06 10:05:05;;;;;;;2.30;1.63;;;;;;;;;;5117613;27;20462;-77
2022/04/06 10:07:33;;;;;;;1.70;1.30;;;;;;;;;;5114591;28;20952;-77
2022/04/06 10:10:01;;;;;;;4.17;1.87;;;;;;;;;;5115773;27;20438;-78
2022/04/06 10:12:30;;;;;;;2.63;1.67;;;;;;;;;;5120324;27;20431;-80
2022/04/06 10:14:58;;;;;;;2.53;1.40;;;;;;;;;;5117752;27;20434;-80
2022/04/06 10:17:28;;;;;;;3.80;1.70;;;;;;;;;;5112239;28;20481;-79
2022/04/06 10:20:01;;;;;;;5.27;2.03;;;;;;;;;;5094152;28;20434;-78
2022/04/06 10:22:32;;;;;;;4.10;2.07;;;;;;;;;;5112391;28;20836;-78
2022/04/06 10:25:02;;;;;;;5.40;2.20;;;;;;;;;;5112730;28;20453;-78
2022/04/06 10:27:32;;;;;;;8.50;2.93;;;;;;;;;;5112927;28;20477;-77
2022/04/06 10:30:14;;;;;;;3.30;1.67;;;;;;;;;;5114166;28;20478;-77
2022/04/06 10:32:42;;;;;;;4.80;1.90;;;;;;;;;;5098176;27;20529;-78
2022/04/06 10:35:24;;;;;;;2.93;1.73;;;;;;;;;;5097934;27;20522;-79
2022/04/06 10:37:54;;;;;;;4.10;1.53;;;;;;;;;;5096747;28;20478;-79
2022/04/06 10:40:22;;;;;;;2.07;1.50;;;;;;;;;;5108677;28;20469;-77
2022/04/06 10:42:51;;;;;;;2.80;1.50;;;;;;;;;;5109133;28;20456;-79
2022/04/06 10:45:33;;;;;;;3.93;1.77;;;;;;;;;;5108391;28;20439;-78
2022/04/06 10:48:15;;;;;;;4.27;2.20;;;;;;;;;;5092335;28;20454;-79
2022/04/06 10:50:44;;;;;;;3.43;1.63;;;;;;;;;;5100412;27;20564;-78
2022/04/06 10:53:36;;;;;;;;;;;;;;;;;;;;;
2022/04/06 10:56:06;;;;;;;3.60;1.80;;;;;;;;;;5112554;27;20762;-79
2022/04/06 10:58:54;;;;;;;3.07;1.80;;;;;;;;;;5128242;27;20468;-79
2022/04/06 11:01:30;;;;;;;5.33;1.40;;;;;;;;;;5128063;27;20514;-80
2022/04/06 11:04:14;;;;;;;1.80;1.23;;;;;;;;;;5128726;27;20453;-79
2022/04/06 11:07:10;;;;;;;1.93;1.30;;;;;;;;;;5117565;27;20462;-77
2022/04/06 11:12:22;;;;;;;2.80;1.43;;;;;;;;;;5094170;27;20450;-79
2022/04/06 11:14:51;;;;;;;2.40;1.13;;;;;;;;;;5097420;27;20448;-78
2022/04/06 11:17:34;;;;;;;2.23;1.23;;;;;;;;;;5119060;27;20440;-79
2022/04/06 11:20:07;;;;;;;2.07;1.20;;;;;;;;;;5127010;27;20522;-80
2022/04/06 11:22:34;;;;;;;1.80;1.40;;;;;;;;;;5127591;27;20473;-78
2022/04/06 11:25:08;;;;;;;1.10;1.00;;;;;;;;;;5128077;27;21018;-78
2022/04/06 11:27:36;;;;;;;2.23;1.10;;;;;;;;;;5128295;27;20449;-78
2022/04/06 11:30:07;;;;;;;2.30;1.23;;;;;;;;;;5110179;27;20465;-79
2022/04/06 11:32:36;;;;;;;2.50;1.40;;;;;;;;;;5109316;28;20503;-79
2022/04/06 11:35:04;;;;;;;3.03;1.63;;;;;;;;;;5111118;27;20416;-77
2022/04/06 11:37:50;;;;;;;2.53;1.30;;;;;;;;;;5114459;27;20449;-80
2022/04/06 11:40:18;;;;;;;3.97;1.10;;;;;;;;;;5110558;27;20460;-81
2022/04/06 11:42:48;;;;;;;2.73;1.40;;;;;;;;;;5089097;28;20494;-80
2022/04/06 11:45:20;;;;;;;2.03;1.13;;;;;;;;;;5106773;28;20442;-81
2022/04/06 11:47:53;;;;;;;3.10;1.30;;;;;;;;;;5110497;28;20462;-78
2022/04/06 11:50:20;;;;;;;3.60;1.20;;;;;;;;;;5110734;28;20474;-79
2022/04/06 11:52:49;;;;;;;1.47;1.33;;;;;;;;;;5111669;28;20485;-81
2022/04/06 11:55:16;;;;;;;2.43;1.17;;;;;;;;;;5111724;28;20446;-78
2022/04/06 11:57:45;;;;;;;2.80;1.50;;;;;;;;;;5114436;28;20457;-78
2022/04/06 12:00:15;;;;;;;3.43;1.20;;;;;;;;;;5100959;28;20436;-80
2022/04/06 12:02:50;;;;;;;2.33;1.13;;;;;;;;;;5123502;28;20636;-82
2022/04/06 12:05:17;;;;;;;3.00;1.30;;;;;;;;;;5131260;27;20444;-82
2022/04/06 12:07:44;;;;;;;1.60;1.03;;;;;;;;;;5117170;27;20465;-82
2022/04/06 12:10:13;;;;;;;2.50;1.13;;;;;;;;;;5135718;27;20441;-78
2022/04/06 12:12:41;;;;;;;3.13;1.30;;;;;;;;;;5117809;27;20517;-77
2022/04/06 12:15:09;;;;;;;3.03;1.43;;;;;;;;;;5119551;27;20472;-81
2022/04/06 12:17:38;;;;;;;1.20;1.00;;;;;;;;;;5116645;28;20537;-77
2022/04/06 12:20:20;;;;;;;3.57;1.17;;;;;;;;;;5099864;27;20442;-78
2022/04/06 12:22:47;;;;;;;1.90;1.40;;;;;;;;;;5106944;27;20476;-78
2022/04/06 12:25:28;;;;;;;1.43;1.20;;;;;;;;;;5118767;27;20437;-78
2022/04/06 12:28:10;;;;;;;7.70;1.57;;;;;;;;;;5114282;28;20884;-78
2022/04/06 12:30:37;;;;;;;2.43;1.30;;;;;;;;;;5114724;28;20929;-78
2022/04/06 12:33:04;;;;;;;2.73;1.40;;;;;;;;;;5114513;28;20976;-78
2022/04/06 12:35:31;;;;;;;3.33;1.47;;;;;;;;;;5114938;28;20441;-78
2022/04/06 12:37:58;;;;;;;1.77;1.30;;;;;;;;;;5115624;28;20838;-79
2022/04/06 12:40:26;;;;;;;2.27;1.43;;;;;;;;;;5116221;28;20450;-80
2022/04/06 12:42:54;;;;;;;2.90;1.60;;;;;;;;;;5117875;27;20503;-79
2022/04/06 12:45:22;;;;;;;2.40;1.20;;;;;;;;;;5122068;27;20439;-79
2022/04/06 12:47:49;;;;;;;2.40;1.50;;;;;;;;;;5126476;27;20841;-81
2022/04/06 12:50:18;;;;;;;1.63;1.30;;;;;;;;;;5134540;27;20830;-79
2022/04/06 12:52:47;;;;;;;3.27;1.90;;;;;;;;;;5134241;27;20471;-80
2022/04/06 12:55:15;;;;;;;2.37;1.10;;;;;;;;;;5135000;27;20824;-77
2022/04/06 12:57:43;;;;;;;2.50;1.70;;;;;;;;;;5134822;27;20471;-79
2022/04/06 13:00:15;;;;;;;3.77;1.80;;;;;;;;;;5118786;27;20462;-80
2022/04/06 13:02:49;;;;;;;4.70;1.60;;;;;;;;;;5115898;28;20510;-80
2022/04/06 13:05:17;;;;;;;3.13;1.67;;;;;;;;;;5117308;27;20443;-80
2022/04/06 13:07:45;;;;;;;2.70;1.40;;;;;;;;;;5121437;27;20473;-79
2022/04/06 13:10:13;;;;;;;2.20;1.40;;;;;;;;;;5125393;27;20436;-79
2022/04/06 13:12:41;;;;;;;4.13;1.60;;;;;;;;;;5134202;27;20768;-78
2022/04/06 13:15:09;;;;;;;2.43;1.40;;;;;;;;;;5133736;27;20464;-78
2022/04/06 13:17:39;;;;;;;4.40;1.50;;;;;;;;;;5078002;28;20443;-79
2022/04/06 13:20:10;;;;;;;2.70;1.80;;;;;;;;;;5092750;28;20860;-77
2022/04/06 13:22:37;;;;;;;4.20;1.60;;;;;;;;;;5097399;27;20984;-79
2022/04/06 13:25:05;;;;;;;2.07;1.40;;;;;;;;;;5121315;27;20442;-79
2022/04/06 13:27:32;;;;;;;5.20;3.37;;;;;;;;;;5123733;27;20432;-77
2022/04/06 13:29:59;;;;;;;4.10;2.20;;;;;;;;;;5133233;27;20952;-78
2022/04/06 13:32:26;;;;;;;4.30;2.50;;;;;;;;;;5133532;27;20496;-76
2022/04/06 13:35:00;;;;;;;3.63;2.00;;;;;;;;;;5133710;27;20470;-77
2022/04/06 13:37:27;;;;;;;2.30;1.70;;;;;;;;;;5134227;27;20445;-79
2022/04/06 13:39:54;;;;;;;4.03;1.50;;;;;;;;;;5121933;27;20460;-79
2022/04/06 13:42:22;;;;;;;2.60;1.50;;;;;;;;;;5115221;28;20475;-77
2022/04/06 13:44:49;;;;;;;2.30;1.67;;;;;;;;;;5115559;27;20445;-78
2022/04/06 13:47:17;;;;;;;2.80;1.80;;;;;;;;;;5120737;27;20433;-78
2022/04/06 13:49:44;;;;;;;5.00;1.80;;;;;;;;;;5102216;28;20466;-78
2022/04/06 13:52:13;;;;;;;4.40;1.43;;;;;;;;;;5092576;28;20488;-78
2022/04/06 13:54:40;;;;;;;2.40;1.37;;;;;;;;;;5074513;28;20436;-77
2022/04/06 13:57:08;;;;;;;2.27;1.50;;;;;;;;;;5093230;28;20439;-78
2022/04/06 13:59:35;;;;;;;3.80;1.70;;;;;;;;;;5092547;28;20592;-78
2022/04/06 14:02:03;;;;;;;3.10;2.30;;;;;;;;;;5094514;28;20526;-77
2022/04/06 14:04:30;;;;;;;3.57;1.80;;;;;;;;;;5094242;28;20919;-80
2022/04/06 14:06:58;;;;;;;3.03;2.10;;;;;;;;;;5111654;27;20794;-78
2022/04/06 14:09:27;;;;;;;6.70;2.00;;;;;;;;;;5119716;27;20455;-78
2022/04/06 14:11:56;;;;;;;2.60;1.63;;;;;;;;;;5131637;27;20538;-79
2022/04/06 14:14:23;;;;;;;3.30;1.53;;;;;;;;;;5132781;27;20485;-77
2022/04/06 14:16:50;;;;;;;3.97;1.70;;;;;;;;;;5132760;27;20433;-78
2022/04/06 14:19:18;;;;;;;2.17;1.70;;;;;;;;;;5107571;27;20486;-78
2022/04/06 14:21:45;;;;;;;2.67;1.77;;;;;;;;;;5092299;28;20524;-78
2022/04/06 14:24:13;;;;;;;4.87;2.03;;;;;;;;;;5093822;28;20481;-76
2022/04/06 14:26:41;;;;;;;2.17;1.50;;;;;;;;;;5093804;28;20443;-79
2022/04/06 14:29:10;;;;;;;4.23;1.97;;;;;;;;;;5108454;27;20466;-77
2022/04/06 14:31:40;;;;;;;2.20;1.40;;;;;;;;;;5119461;27;20998;-77
2022/04/06 14:34:08;;;;;;;4.70;1.80;;;;;;;;;;5129932;27;20473;-77
2022/04/06 14:36:37;;;;;;;3.00;1.80;;;;;;;;;;5084053;28;20564;-77
2022/04/06 14:39:04;;;;;;;4.27;2.20;;;;;;;;;;5106842;28;20463;-78
2022/04/06 14:41:31;;;;;;;4.07;2.23;;;;;;;;;;5112577;28;20464;-78
2022/04/06 14:43:59;;;;;;;5.67;2.53;;;;;;;;;;5108783;28;21078;-77
2022/04/06 14:46:27;;;;;;;2.17;1.70;;;;;;;;;;5093553;28;20451;-76
2022/04/06 14:48:54;;;;;;;5.53;2.07;;;;;;;;;;5093274;28;20479;-77
2022/04/06 14:51:21;;;;;;;2.23;1.50;;;;;;;;;;5101828;27;20442;-77
2022/04/06 14:53:49;;;;;;;2.43;2.00;;;;;;;;;;5118356;27;20456;-77
2022/04/06 14:56:16;;;;;;;2.43;1.90;;;;;;;;;;5125735;27;20446;-79
2022/04/06 14:58:43;;;;;;;6.13;2.53;;;;;;;;;;5132488;27;20464;-77
2022/04/06 15:01:11;;;;;;;2.43;1.73;;;;;;;;;;5132138;27;20537;-78
2022/04/06 15:03:39;;;;;;;2.53;1.93;;;;;;;;;;5132547;27;20829;-77
2022/04/06 15:06:06;;;;;;;2.20;2.00;;;;;;;;;;5132463;27;20450;-77